Time;durP1;ratioP1;P1;durP2;ratioP2;P2;SDS_P1;SDS_P2;PMS_P1;PMS_P2;Temp;Humidity;BMP_temperature;BMP_pressure;BME280_temperature;BME280_humidity;BME280_pressure;Samples;Min_cycle;Max_cycle;Signal;HPM_P1;HPM_P2
2021/09/25 00:16:51;;;;;;;12.88;3.20;;;;;;;;;;4663690;28;20083;-66
2021/09/25 00:19:17;;;;;;;8.73;2.87;;;;;;;;;;4146990;34;20178;-66
2021/09/25 00:21:43;;;;;;;16.65;3.12;;;;;;;;;;4150077;34;20551;-66
2021/09/25 00:24:08;;;;;;;16.40;3.08;;;;;;;;;;4143778;34;20103;-65
2021/09/25 00:26:34;;;;;;;15.05;3.28;;;;;;;;;;4151037;34;20205;-66
2021/09/25 00:29:00;;;;;;;14.20;3.00;;;;;;;;;;4151123;34;20207;-66
2021/09/25 00:31:26;;;;;;;7.97;3.17;;;;;;;;;;4150825;34;20586;-66
2021/09/25 00:33:52;;;;;;;13.77;3.10;;;;;;;;;;4150921;34;20114;-65
2021/09/25 00:36:18;;;;;;;12.80;3.15;;;;;;;;;;4150941;34;20122;-66
2021/09/25 00:38:44;;;;;;;10.43;2.97;;;;;;;;;;4150935;34;20088;-66
2021/09/25 00:41:10;;;;;;;14.20;3.33;;;;;;;;;;4150861;34;21078;-66
2021/09/25 00:43:35;;;;;;;9.40;2.95;;;;;;;;;;4150967;34;20111;-66
2021/09/25 00:46:01;;;;;;;6.45;2.75;;;;;;;;;;4151105;34;20135;-65
2021/09/25 00:48:27;;;;;;;13.57;4.87;;;;;;;;;;4150405;34;20438;-65
2021/09/25 00:50:53;;;;;;;10.35;2.97;;;;;;;;;;4149315;34;20596;-66
2021/09/25 00:53:19;;;;;;;11.02;2.90;;;;;;;;;;4150017;34;20179;-66
2021/09/25 00:55:46;;;;;;;17.52;3.35;;;;;;;;;;4150793;34;20122;-66
2021/09/25 00:58:11;;;;;;;11.73;4.62;;;;;;;;;;4149485;34;20546;-66
2021/09/25 01:00:37;;;;;;;3.75;2.58;;;;;;;;;;4149252;34;20103;-65
2021/09/25 01:03:03;;;;;;;9.43;3.00;;;;;;;;;;4150744;34;20095;-65
2021/09/25 01:05:29;;;;;;;9.38;3.87;;;;;;;;;;4150855;34;20125;-64
2021/09/25 01:07:56;;;;;;;11.05;3.20;;;;;;;;;;4150462;34;20154;-65
2021/09/25 01:10:22;;;;;;;14.10;3.20;;;;;;;;;;4150491;34;20523;-66
2021/09/25 01:12:48;;;;;;;19.27;3.92;;;;;;;;;;4149036;34;20194;-66
2021/09/25 01:15:14;;;;;;;18.75;3.25;;;;;;;;;;4150462;34;20107;-66
2021/09/25 01:17:40;;;;;;;22.02;3.42;;;;;;;;;;4150255;34;20138;-66
2021/09/25 01:20:07;;;;;;;18.35;3.72;;;;;;;;;;4149107;34;20134;-66
2021/09/25 01:22:33;;;;;;;19.65;3.70;;;;;;;;;;4150167;34;20100;-66
2021/09/25 01:24:59;;;;;;;11.93;3.15;;;;;;;;;;4149083;34;20635;-66
2021/09/25 01:27:25;;;;;;;19.23;3.50;;;;;;;;;;4150444;34;20555;-66
2021/09/25 01:29:51;;;;;;;18.17;4.22;;;;;;;;;;4149055;34;20121;-65
2021/09/25 01:32:18;;;;;;;16.23;3.83;;;;;;;;;;4150191;34;20123;-66
2021/09/25 01:34:44;;;;;;;22.67;4.05;;;;;;;;;;4150367;34;20190;-66
2021/09/25 01:37:10;;;;;;;15.45;3.65;;;;;;;;;;4150560;34;20196;-66
2021/09/25 01:39:35;;;;;;;15.80;3.50;;;;;;;;;;4149139;34;20150;-66
2021/09/25 01:42:02;;;;;;;10.82;3.40;;;;;;;;;;4150015;34;20399;-66
2021/09/25 01:44:28;;;;;;;19.40;4.50;;;;;;;;;;4150284;34;20100;-66
2021/09/25 01:46:55;;;;;;;24.58;4.60;;;;;;;;;;4150290;34;20200;-66
2021/09/25 01:49:21;;;;;;;19.65;4.70;;;;;;;;;;4150252;34;20503;-66
2021/09/25 01:51:46;;;;;;;19.48;4.28;;;;;;;;;;4149948;34;20531;-66
2021/09/25 01:54:14;;;;;;;16.62;4.07;;;;;;;;;;4150408;34;20111;-66
2021/09/25 01:56:40;;;;;;;19.12;4.97;;;;;;;;;;4150007;34;20219;-66
2021/09/25 01:59:06;;;;;;;16.30;5.07;;;;;;;;;;4150051;34;20131;-66
2021/09/25 02:01:32;;;;;;;17.92;4.53;;;;;;;;;;4150086;34;20203;-66
2021/09/25 02:03:58;;;;;;;22.52;4.37;;;;;;;;;;4150357;34;20727;-67
2021/09/25 02:06:24;;;;;;;26.42;5.07;;;;;;;;;;4150152;34;20130;-66
2021/09/25 02:08:49;;;;;;;24.80;5.97;;;;;;;;;;4160144;34;20146;-66
2021/09/25 02:11:15;;;;;;;30.15;5.87;;;;;;;;;;4150097;34;20196;-66
2021/09/25 02:13:47;;;;;;;32.97;6.60;;;;;;;;;;4150371;34;20130;-66
2021/09/25 02:16:13;;;;;;;35.80;6.72;;;;;;;;;;4149507;34;20126;-67
2021/09/25 02:18:40;;;;;;;30.67;5.80;;;;;;;;;;4150026;34;20111;-67
2021/09/25 02:21:06;;;;;;;45.70;8.40;;;;;;;;;;4150075;34;20125;-67
2021/09/25 02:23:32;;;;;;;48.60;9.35;;;;;;;;;;4149816;34;20202;-67
2021/09/25 02:25:59;;;;;;;46.40;9.43;;;;;;;;;;4149835;34;20135;-67
2021/09/25 02:28:26;;;;;;;38.50;7.12;;;;;;;;;;4148800;34;20135;-66
2021/09/25 02:30:52;;;;;;;49.20;8.75;;;;;;;;;;4149665;34;20119;-66
2021/09/25 02:33:18;;;;;;;57.50;9.15;;;;;;;;;;4149961;34;20464;-66
2021/09/25 02:35:44;;;;;;;48.42;10.00;;;;;;;;;;4149778;34;20126;-66
2021/09/25 02:38:10;;;;;;;57.75;8.75;;;;;;;;;;4149685;34;20531;-66
2021/09/25 02:40:36;;;;;;;56.92;8.32;;;;;;;;;;4148365;34;20107;-67
2021/09/25 02:43:02;;;;;;;50.40;7.30;;;;;;;;;;4148389;34;20123;-66
2021/09/25 02:45:28;;;;;;;53.35;9.73;;;;;;;;;;4149694;34;20094;-66
2021/09/25 02:47:54;;;;;;;49.80;8.35;;;;;;;;;;4137105;34;20095;-67
2021/09/25 02:50:20;;;;;;;59.60;7.93;;;;;;;;;;4149509;34;20278;-66
2021/09/25 02:52:46;;;;;;;53.03;9.90;;;;;;;;;;4149572;34;20607;-67
2021/09/25 02:55:12;;;;;;;56.28;7.72;;;;;;;;;;4149553;34;20119;-66
2021/09/25 02:57:38;;;;;;;49.60;7.90;;;;;;;;;;4149484;34;20131;-66
2021/09/25 03:00:06;;;;;;;39.10;8.25;;;;;;;;;;4149743;34;20547;-67
2021/09/25 03:02:32;;;;;;;54.88;7.50;;;;;;;;;;4149682;34;20561;-66
2021/09/25 03:04:57;;;;;;;54.13;10.85;;;;;;;;;;4149521;34;20123;-67
2021/09/25 03:07:23;;;;;;;55.00;8.90;;;;;;;;;;4149547;34;20092;-67
2021/09/25 03:09:49;;;;;;;44.72;8.00;;;;;;;;;;4149479;34;20107;-66
2021/09/25 03:12:15;;;;;;;41.88;7.65;;;;;;;;;;4149390;34;20134;-66
2021/09/25 03:14:41;;;;;;;50.20;7.75;;;;;;;;;;4149431;34;20306;-67
2021/09/25 03:17:07;;;;;;;48.20;7.95;;;;;;;;;;4148575;34;20612;-67
2021/09/25 03:19:34;;;;;;;45.70;8.48;;;;;;;;;;4151510;34;20112;-66
2021/09/25 03:22:00;;;;;;;36.10;7.78;;;;;;;;;;4151402;34;20207;-66
2021/09/25 03:24:26;;;;;;;50.25;8.80;;;;;;;;;;4151283;34;20460;-67
2021/09/25 03:26:52;;;;;;;52.65;9.93;;;;;;;;;;4151267;34;20139;-67
2021/09/25 03:29:17;;;;;;;46.92;7.55;;;;;;;;;;4151381;34;20119;-67
2021/09/25 03:31:43;;;;;;;41.95;7.57;;;;;;;;;;4150131;34;20164;-67
2021/09/25 03:34:09;;;;;;;46.15;10.23;;;;;;;;;;4151359;34;20104;-66
2021/09/25 03:36:35;;;;;;;61.37;14.55;;;;;;;;;;4151322;34;20111;-66
2021/09/25 03:39:01;;;;;;;44.55;7.00;;;;;;;;;;4151184;34;20150;-68
2021/09/25 03:41:27;;;;;;;31.70;6.97;;;;;;;;;;4151246;34;20204;-68
2021/09/25 03:43:53;;;;;;;44.53;11.48;;;;;;;;;;4151235;34;20480;-68
2021/09/25 03:46:19;;;;;;;32.85;7.95;;;;;;;;;;4151182;34;20115;-68
2021/09/25 03:48:45;;;;;;;35.70;6.93;;;;;;;;;;4151231;34;20122;-67
2021/09/25 03:51:11;;;;;;;47.08;10.63;;;;;;;;;;4151177;34;20111;-68
2021/09/25 03:53:37;;;;;;;32.78;6.43;;;;;;;;;;4151394;34;20232;-67
2021/09/25 03:56:12;;;;;;;38.10;6.62;;;;;;;;;;4149841;34;20437;-68
2021/09/25 03:58:38;;;;;;;30.00;7.12;;;;;;;;;;4151204;34;20532;-68
2021/09/25 04:01:08;;;;;;;36.95;7.03;;;;;;;;;;4151098;34;20143;-68
2021/09/25 04:03:34;;;;;;;31.17;6.28;;;;;;;;;;4151153;34;20118;-67
2021/09/25 04:06:01;;;;;;;24.55;6.05;;;;;;;;;;4151126;34;20142;-68
2021/09/25 04:08:28;;;;;;;43.65;7.10;;;;;;;;;;4151159;34;20107;-68
2021/09/25 04:10:54;;;;;;;34.75;6.55;;;;;;;;;;4149770;34;20516;-68
2021/09/25 04:13:20;;;;;;;45.40;7.68;;;;;;;;;;4150959;34;20307;-68
2021/09/25 04:15:46;;;;;;;44.80;7.47;;;;;;;;;;4151172;34;20431;-67
2021/09/25 04:18:12;;;;;;;34.90;6.28;;;;;;;;;;4150718;34;20130;-68
2021/09/25 04:20:38;;;;;;;37.67;7.12;;;;;;;;;;4150861;34;20114;-67
2021/09/25 04:23:04;;;;;;;35.72;7.37;;;;;;;;;;4150665;34;20456;-68
2021/09/25 04:25:30;;;;;;;41.90;8.00;;;;;;;;;;4149728;34;20095;-68
2021/09/25 04:28:09;;;;;;;34.22;7.25;;;;;;;;;;4150177;34;20190;-68
2021/09/25 04:30:39;;;;;;;33.15;8.30;;;;;;;;;;4149386;34;20127;-67
2021/09/25 04:33:06;;;;;;;35.28;6.57;;;;;;;;;;4150753;34;20086;-68
2021/09/25 04:35:32;;;;;;;36.85;6.72;;;;;;;;;;4150997;34;20560;-68
2021/09/25 04:37:59;;;;;;;21.83;6.30;;;;;;;;;;4150639;34;20201;-68
2021/09/25 04:40:25;;;;;;;28.60;7.10;;;;;;;;;;4150805;34;20114;-65
2021/09/25 04:42:51;;;;;;;28.75;7.25;;;;;;;;;;4150679;34;20190;-66
2021/09/25 04:45:16;;;;;;;31.08;6.57;;;;;;;;;;4150963;34;20228;-65
2021/09/25 04:47:43;;;;;;;30.45;8.02;;;;;;;;;;4149016;34;20138;-65
2021/09/25 04:50:09;;;;;;;37.78;8.23;;;;;;;;;;4150190;34;20480;-65
2021/09/25 04:52:35;;;;;;;39.60;6.22;;;;;;;;;;4150271;34;20125;-65
2021/09/25 04:55:01;;;;;;;24.08;7.22;;;;;;;;;;4148701;34;20218;-67
2021/09/25 04:57:27;;;;;;;37.22;7.78;;;;;;;;;;4148613;34;20130;-67
2021/09/25 04:59:53;;;;;;;29.63;8.00;;;;;;;;;;4148609;34;20219;-67
2021/09/25 05:02:19;;;;;;;29.33;6.32;;;;;;;;;;4146868;34;20207;-67
2021/09/25 05:04:45;;;;;;;23.98;7.07;;;;;;;;;;4148428;34;20146;-66
2021/09/25 05:07:11;;;;;;;29.33;6.62;;;;;;;;;;4148530;34;20123;-66
2021/09/25 05:09:37;;;;;;;29.12;6.53;;;;;;;;;;4150369;34;20116;-66
2021/09/25 05:12:03;;;;;;;33.42;6.53;;;;;;;;;;4150273;34;20106;-66
2021/09/25 05:14:29;;;;;;;31.15;7.70;;;;;;;;;;4150480;34;20087;-66
2021/09/25 05:16:56;;;;;;;25.85;6.32;;;;;;;;;;4150527;34;20278;-65
2021/09/25 05:19:22;;;;;;;36.20;7.78;;;;;;;;;;4150004;34;20123;-64
2021/09/25 05:21:48;;;;;;;37.20;7.80;;;;;;;;;;4150321;34;20565;-65
2021/09/25 05:24:14;;;;;;;27.40;8.95;;;;;;;;;;4150341;34;20191;-64
2021/09/25 05:26:41;;;;;;;27.02;8.15;;;;;;;;;;4148962;34;20154;-64
2021/09/25 05:29:07;;;;;;;35.00;7.53;;;;;;;;;;4149977;34;20115;-65
2021/09/25 05:31:33;;;;;;;38.55;8.45;;;;;;;;;;4150379;34;20160;-64
2021/09/25 05:33:59;;;;;;;33.72;7.70;;;;;;;;;;4150397;34;20244;-65
2021/09/25 05:36:25;;;;;;;28.12;7.50;;;;;;;;;;4150377;34;20126;-67
2021/09/25 05:38:51;;;;;;;37.30;7.22;;;;;;;;;;4150350;34;20122;-65
2021/09/25 05:41:17;;;;;;;25.55;6.35;;;;;;;;;;4149889;34;20121;-67
2021/09/25 05:43:43;;;;;;;37.60;7.12;;;;;;;;;;4150336;34;20103;-68
2021/09/25 05:46:09;;;;;;;30.48;7.53;;;;;;;;;;4150266;34;20138;-67
2021/09/25 05:48:35;;;;;;;32.13;7.43;;;;;;;;;;4150429;34;20499;-64
2021/09/25 05:51:02;;;;;;;38.65;7.45;;;;;;;;;;4150229;34;20215;-64
2021/09/25 05:53:28;;;;;;;42.67;7.80;;;;;;;;;;4150433;34;20449;-67
2021/09/25 05:55:54;;;;;;;40.67;8.02;;;;;;;;;;4150112;34;20135;-67
2021/09/25 05:58:20;;;;;;;28.77;7.97;;;;;;;;;;4150367;34;20138;-65
2021/09/25 06:00:45;;;;;;;33.83;6.60;;;;;;;;;;4150318;34;20198;-66
2021/09/25 06:03:11;;;;;;;35.00;7.80;;;;;;;;;;4150417;34;20103;-65
2021/09/25 06:05:37;;;;;;;44.45;6.70;;;;;;;;;;4150035;34;20635;-65
2021/09/25 06:08:03;;;;;;;33.40;9.27;;;;;;;;;;4150036;34;20127;-66
2021/09/25 06:10:30;;;;;;;49.03;8.80;;;;;;;;;;4150209;34;20107;-66
2021/09/25 06:12:56;;;;;;;36.72;8.45;;;;;;;;;;4149973;34;20107;-66
2021/09/25 06:15:22;;;;;;;45.92;7.53;;;;;;;;;;4149928;34;20115;-66
2021/09/25 06:17:48;;;;;;;41.75;9.70;;;;;;;;;;4148639;34;20134;-66
2021/09/25 06:20:14;;;;;;;46.13;8.68;;;;;;;;;;4149823;34;20522;-66
2021/09/25 06:22:40;;;;;;;42.05;7.45;;;;;;;;;;4149915;34;20600;-65
2021/09/25 06:25:06;;;;;;;46.95;8.38;;;;;;;;;;4149918;34;20099;-65
2021/09/25 06:27:32;;;;;;;51.40;9.63;;;;;;;;;;4149719;34;20127;-65
2021/09/25 06:29:58;;;;;;;42.20;7.93;;;;;;;;;;4149819;34;20272;-65
2021/09/25 06:32:24;;;;;;;49.28;7.40;;;;;;;;;;4149669;34;20104;-65
2021/09/25 06:34:50;;;;;;;44.92;7.32;;;;;;;;;;4148465;34;20107;-65
2021/09/25 06:37:16;;;;;;;42.25;7.85;;;;;;;;;;4148482;34;20234;-65
2021/09/25 06:39:42;;;;;;;47.53;7.37;;;;;;;;;;4149766;34;20147;-65
2021/09/25 06:42:08;;;;;;;51.95;8.23;;;;;;;;;;4148460;34;20106;-66
2021/09/25 06:44:34;;;;;;;40.05;7.60;;;;;;;;;;4148421;34;20631;-66
2021/09/25 06:46:59;;;;;;;45.00;7.37;;;;;;;;;;4149629;34;20150;-68
2021/09/25 06:49:25;;;;;;;46.47;8.40;;;;;;;;;;4149950;34;20141;-67
2021/09/25 06:51:51;;;;;;;51.42;9.13;;;;;;;;;;4149419;34;20198;-66
2021/09/25 06:54:17;;;;;;;43.22;7.03;;;;;;;;;;4149735;34;20223;-66
2021/09/25 06:56:43;;;;;;;41.85;7.97;;;;;;;;;;4148252;34;20106;-63
2021/09/25 06:59:09;;;;;;;46.37;8.70;;;;;;;;;;4149631;34;20607;-66
2021/09/25 07:01:35;;;;;;;38.58;7.40;;;;;;;;;;4149936;34;20183;-63
2021/09/25 07:04:01;;;;;;;32.13;5.78;;;;;;;;;;4148322;34;20127;-66
2021/09/25 07:06:26;;;;;;;40.30;7.68;;;;;;;;;;4149435;34;20127;-65
2021/09/25 07:08:52;;;;;;;36.38;6.97;;;;;;;;;;4149640;34;20496;-64
2021/09/25 07:11:18;;;;;;;42.47;7.70;;;;;;;;;;4149371;34;20608;-67
2021/09/25 07:13:44;;;;;;;44.20;6.40;;;;;;;;;;4149452;34;20448;-65
2021/09/25 07:16:11;;;;;;;27.23;6.18;;;;;;;;;;4149244;34;20107;-64
2021/09/25 07:18:38;;;;;;;54.17;6.40;;;;;;;;;;4149611;34;20122;-65
2021/09/25 07:21:05;;;;;;;45.80;7.07;;;;;;;;;;4149273;34;20145;-62
2021/09/25 07:23:32;;;;;;;58.33;6.95;;;;;;;;;;4149590;34;20122;-63
2021/09/25 07:25:58;;;;;;;50.25;8.15;;;;;;;;;;4149296;34;20147;-64
2021/09/25 07:28:24;;;;;;;44.83;9.07;;;;;;;;;;4149315;34;20123;-63
2021/09/25 07:30:50;;;;;;;58.42;8.35;;;;;;;;;;4149239;34;20634;-65
2021/09/25 07:33:16;;;;;;;61.25;9.35;;;;;;;;;;4149104;34;20119;-66
2021/09/25 07:35:43;;;;;;;41.70;7.45;;;;;;;;;;4136632;34;20214;-66
2021/09/25 07:38:08;;;;;;;47.25;8.38;;;;;;;;;;4149388;34;20119;-65
2021/09/25 07:40:35;;;;;;;45.72;9.48;;;;;;;;;;4148805;34;20252;-65
2021/09/25 07:43:01;;;;;;;56.20;10.55;;;;;;;;;;4148679;34;20456;-65
2021/09/25 07:45:27;;;;;;;53.40;9.27;;;;;;;;;;4149129;34;20519;-65
2021/09/25 07:47:53;;;;;;;63.53;8.77;;;;;;;;;;4147928;34;20503;-66
2021/09/25 07:50:19;;;;;;;43.20;9.10;;;;;;;;;;4148935;34;20115;-66
2021/09/25 07:52:45;;;;;;;42.97;8.88;;;;;;;;;;4149119;34;20455;-66
2021/09/25 07:55:12;;;;;;;50.12;8.32;;;;;;;;;;4147647;34;20131;-67
2021/09/25 07:57:38;;;;;;;26.40;6.87;;;;;;;;;;4146937;34;20125;-65
2021/09/25 08:00:05;;;;;;;50.63;9.32;;;;;;;;;;4148136;34;20122;-65
2021/09/25 08:02:31;;;;;;;31.62;8.48;;;;;;;;;;4148774;34;20240;-65
2021/09/25 08:04:57;;;;;;;42.00;9.75;;;;;;;;;;4150541;34;20127;-63
2021/09/25 08:07:23;;;;;;;39.28;7.45;;;;;;;;;;4150684;34;20119;-64
2021/09/25 08:09:49;;;;;;;50.72;8.02;;;;;;;;;;4171859;34;20213;-64
2021/09/25 08:12:14;;;;;;;38.75;8.30;;;;;;;;;;4148811;34;20135;-63
2021/09/25 08:14:40;;;;;;;44.60;8.65;;;;;;;;;;4148245;34;20487;-64
2021/09/25 08:17:06;;;;;;;46.05;9.23;;;;;;;;;;4150221;34;20182;-65
2021/09/25 08:19:32;;;;;;;58.83;9.88;;;;;;;;;;4151124;34;20213;-64
2021/09/25 08:21:58;;;;;;;60.65;9.18;;;;;;;;;;4172645;34;20118;-64
2021/09/25 08:24:24;;;;;;;41.08;7.35;;;;;;;;;;4151270;34;20103;-64
2021/09/25 08:26:50;;;;;;;54.00;9.23;;;;;;;;;;4150857;34;20123;-64
2021/09/25 08:29:16;;;;;;;47.20;8.98;;;;;;;;;;4172191;34;20143;-65
2021/09/25 08:31:42;;;;;;;38.53;7.75;;;;;;;;;;4150812;34;20539;-65
2021/09/25 08:34:07;;;;;;;45.38;7.93;;;;;;;;;;4150902;34;20145;-65
2021/09/25 08:36:34;;;;;;;44.38;8.70;;;;;;;;;;4150832;34;20103;-65
2021/09/25 08:39:00;;;;;;;36.15;7.53;;;;;;;;;;4150890;34;20115;-65
2021/09/25 08:41:26;;;;;;;34.40;7.45;;;;;;;;;;4150929;34;20510;-66
2021/09/25 08:43:51;;;;;;;52.80;9.30;;;;;;;;;;4151024;34;20237;-66
2021/09/25 08:46:17;;;;;;;47.38;11.45;;;;;;;;;;4150871;34;20178;-65
2021/09/25 08:48:43;;;;;;;53.67;8.35;;;;;;;;;;4150909;34;20115;-68
2021/09/25 08:51:11;;;;;;;48.20;10.43;;;;;;;;;;4150664;34;20126;-68
2021/09/25 08:53:37;;;;;;;28.10;6.82;;;;;;;;;;4150934;34;20448;-68
2021/09/25 08:56:03;;;;;;;46.85;8.27;;;;;;;;;;4150674;34;20106;-68
2021/09/25 08:58:29;;;;;;;47.67;8.82;;;;;;;;;;4150812;34;20146;-64
2021/09/25 09:00:55;;;;;;;55.38;10.68;;;;;;;;;;4150803;34;20111;-65
2021/09/25 09:03:30;;;;;;;35.20;7.37;;;;;;;;;;4172207;34;20175;-66
2021/09/25 09:06:09;;;;;;;29.25;6.53;;;;;;;;;;4150689;34;20219;-65
2021/09/25 09:08:36;;;;;;;54.72;11.68;;;;;;;;;;4171867;34;20520;-64
2021/09/25 09:11:02;;;;;;;18.83;6.35;;;;;;;;;;4150653;34;20469;-66
2021/09/25 09:13:28;;;;;;;35.13;6.70;;;;;;;;;;4150557;34;20088;-65
2021/09/25 09:15:54;;;;;;;33.97;7.82;;;;;;;;;;4150184;34;20150;-67
2021/09/25 09:18:21;;;;;;;48.08;9.95;;;;;;;;;;4150610;34;20125;-64
2021/09/25 09:21:00;;;;;;;42.92;8.60;;;;;;;;;;4150628;34;20210;-64
2021/09/25 09:23:26;;;;;;;45.00;8.65;;;;;;;;;;4150604;34;20429;-64
2021/09/25 09:25:52;;;;;;;37.13;7.57;;;;;;;;;;4150623;34;20200;-64
2021/09/25 09:28:24;;;;;;;31.92;8.70;;;;;;;;;;4150519;34;20215;-67
2021/09/25 09:30:59;;;;;;;32.47;8.50;;;;;;;;;;4170372;34;20112;-64
2021/09/25 09:33:46;;;;;;;42.28;7.80;;;;;;;;;;4150571;34;20110;-65
2021/09/25 09:36:17;;;;;;;26.62;5.85;;;;;;;;;;4168555;34;20118;-67
2021/09/25 09:38:51;;;;;;;36.47;6.15;;;;;;;;;;4150631;34;20567;-64
2021/09/25 09:41:19;;;;;;;23.40;6.07;;;;;;;;;;4150153;34;20110;-67
2021/09/25 09:43:45;;;;;;;23.15;6.55;;;;;;;;;;4150229;34;20111;-67
2021/09/25 09:46:10;;;;;;;27.13;6.93;;;;;;;;;;4150459;34;20115;-67
2021/09/25 09:48:36;;;;;;;28.75;6.93;;;;;;;;;;4171662;34;20133;-64
2021/09/25 09:51:02;;;;;;;35.97;6.93;;;;;;;;;;4150034;34;20140;-67
2021/09/25 09:53:41;;;;;;;28.77;7.30;;;;;;;;;;4171578;34;20114;-67
2021/09/25 09:56:17;;;;;;;39.30;10.70;;;;;;;;;;4150382;34;20126;-67
2021/09/25 09:58:44;;;;;;;34.17;7.37;;;;;;;;;;4171417;34;20143;-64
2021/09/25 10:01:10;;;;;;;24.67;7.37;;;;;;;;;;4160079;34;20123;-64
2021/09/25 10:03:37;;;;;;;34.10;8.38;;;;;;;;;;4150175;34;20648;-65
2021/09/25 10:06:02;;;;;;;25.17;6.82;;;;;;;;;;4160367;34;20123;-67
2021/09/25 10:08:28;;;;;;;29.30;7.40;;;;;;;;;;4160458;34;20648;-65
2021/09/25 10:10:54;;;;;;;30.65;7.93;;;;;;;;;;4171365;34;20088;-64
2021/09/25 10:13:20;;;;;;;17.80;5.80;;;;;;;;;;4171159;34;20138;-64
2021/09/25 10:15:46;;;;;;;15.45;5.93;;;;;;;;;;4159914;34;20135;-64
2021/09/25 10:18:12;;;;;;;25.60;7.03;;;;;;;;;;4171013;34;20115;-64
2021/09/25 10:20:37;;;;;;;25.27;7.30;;;;;;;;;;4171251;34;20227;-64
2021/09/25 10:23:03;;;;;;;23.30;6.57;;;;;;;;;;4171319;34;20111;-64
2021/09/25 10:25:29;;;;;;;33.38;7.97;;;;;;;;;;4171169;34;20106;-64
2021/09/25 10:27:57;;;;;;;24.33;6.37;;;;;;;;;;4170494;34;20114;-64
2021/09/25 10:30:34;;;;;;;26.75;7.57;;;;;;;;;;4149934;34;20099;-64
2021/09/25 10:33:00;;;;;;;17.42;6.18;;;;;;;;;;4171022;34;20122;-64
2021/09/25 10:35:26;;;;;;;20.48;6.12;;;;;;;;;;4159461;34;20475;-64
2021/09/25 10:37:53;;;;;;;27.27;6.65;;;;;;;;;;4149896;34;20526;-65
2021/09/25 10:40:20;;;;;;;38.25;6.90;;;;;;;;;;4149872;34;20104;-66
2021/09/25 10:42:55;;;;;;;30.95;10.25;;;;;;;;;;4171267;34;20130;-64
2021/09/25 10:45:27;;;;;;;38.87;8.13;;;;;;;;;;4149902;34;20110;-64
2021/09/25 10:48:22;;;;;;;39.17;8.45;;;;;;;;;;4150049;34;20103;-64
2021/09/25 10:50:54;;;;;;;26.12;6.65;;;;;;;;;;4142550;34;20517;-64
2021/09/25 10:53:22;;;;;;;25.98;5.60;;;;;;;;;;4149791;34;20122;-64
2021/09/25 10:55:50;;;;;;;21.58;6.22;;;;;;;;;;4149870;34;20186;-64
2021/09/25 10:58:17;;;;;;;34.40;8.02;;;;;;;;;;4149990;34;20123;-66
2021/09/25 11:00:51;;;;;;;18.67;5.72;;;;;;;;;;4149677;34;20218;-64
2021/09/25 11:03:42;;;;;;;26.73;6.90;;;;;;;;;;4149498;34;20219;-64
2021/09/25 11:06:39;;;;;;;24.58;7.10;;;;;;;;;;4149586;34;20111;-67
2021/09/25 11:09:14;;;;;;;37.50;7.82;;;;;;;;;;4149630;34;20138;-65
2021/09/25 11:11:46;;;;;;;41.42;8.82;;;;;;;;;;4149581;34;20131;-66
2021/09/25 11:14:29;;;;;;;21.55;5.70;;;;;;;;;;4149639;34;20464;-64
2021/09/25 11:17:07;;;;;;;22.75;7.40;;;;;;;;;;4149634;34;20523;-64
2021/09/25 11:19:41;;;;;;;33.75;6.55;;;;;;;;;;4149511;34;20628;-64
2021/09/25 11:22:12;;;;;;;30.60;7.43;;;;;;;;;;4149534;34;20115;-64
2021/09/25 11:24:45;;;;;;;36.08;6.93;;;;;;;;;;4149595;34;20226;-64
2021/09/25 11:27:14;;;;;;;34.53;7.50;;;;;;;;;;4149558;34;20207;-64
2021/09/25 11:29:50;;;;;;;39.92;7.25;;;;;;;;;;4149489;34;20122;-67
2021/09/25 11:32:16;;;;;;;27.73;6.53;;;;;;;;;;4149313;34;20134;-64
2021/09/25 11:34:41;;;;;;;28.50;7.00;;;;;;;;;;4149391;34;20107;-66
2021/09/25 11:37:07;;;;;;;31.15;8.02;;;;;;;;;;4149388;34;20108;-64
2021/09/25 11:39:44;;;;;;;34.47;8.23;;;;;;;;;;4151382;34;20122;-67
2021/09/25 11:42:30;;;;;;;27.52;6.95;;;;;;;;;;4172675;34;20103;-67
2021/09/25 11:45:06;;;;;;;35.22;6.85;;;;;;;;;;4151441;34;20158;-64
2021/09/25 11:47:36;;;;;;;28.73;5.53;;;;;;;;;;4151735;34;20523;-64
2021/09/25 11:50:23;;;;;;;25.60;5.85;;;;;;;;;;4151424;34;20208;-64
2021/09/25 11:52:55;;;;;;;17.12;4.75;;;;;;;;;;4151342;34;20087;-64
2021/09/25 11:55:22;;;;;;;33.15;6.85;;;;;;;;;;4151203;34;20190;-67
2021/09/25 11:57:50;;;;;;;26.83;5.70;;;;;;;;;;4151483;34;20522;-67
2021/09/25 12:00:20;;;;;;;30.20;7.35;;;;;;;;;;4151097;34;20111;-64
2021/09/25 12:02:47;;;;;;;28.77;5.60;;;;;;;;;;4151132;34;20447;-64
2021/09/25 12:05:34;;;;;;;24.73;5.45;;;;;;;;;;4151402;34;20119;-64
2021/09/25 12:08:11;;;;;;;38.40;7.37;;;;;;;;;;4151134;34;20223;-64
2021/09/25 12:10:39;;;;;;;14.93;4.87;;;;;;;;;;4171275;34;20184;-64
2021/09/25 12:13:18;;;;;;;25.27;4.40;;;;;;;;;;4151586;34;19983;-64
2021/09/25 12:15:45;;;;;;;25.27;4.78;;;;;;;;;;4151185;34;20182;-64
2021/09/25 12:18:14;;;;;;;22.80;6.05;;;;;;;;;;4172103;34;20108;-67
2021/09/25 12:20:42;;;;;;;15.30;4.50;;;;;;;;;;4171849;34;20118;-67
2021/09/25 12:23:08;;;;;;;20.95;5.47;;;;;;;;;;4150938;34;20122;-64
2021/09/25 12:25:36;;;;;;;28.02;5.28;;;;;;;;;;4150978;34;20135;-64
2021/09/25 12:28:02;;;;;;;25.00;5.53;;;;;;;;;;4150813;34;20475;-64
2021/09/25 12:30:28;;;;;;;22.65;5.90;;;;;;;;;;4151009;34;20530;-64
2021/09/25 12:33:01;;;;;;;27.85;7.72;;;;;;;;;;4150818;34;20134;-64
2021/09/25 12:35:27;;;;;;;26.15;7.12;;;;;;;;;;4150861;34;20574;-64
2021/09/25 12:37:53;;;;;;;37.58;7.18;;;;;;;;;;4150736;34;20133;-65
2021/09/25 12:40:19;;;;;;;37.35;7.53;;;;;;;;;;4150937;34;20126;-65
2021/09/25 12:42:45;;;;;;;30.00;8.30;;;;;;;;;;4150869;34;20111;-67
2021/09/25 12:45:12;;;;;;;32.72;7.90;;;;;;;;;;4150927;34;20218;-65
2021/09/25 12:47:38;;;;;;;40.88;10.15;;;;;;;;;;4150787;34;20546;-65
2021/09/25 12:50:21;;;;;;;34.88;7.55;;;;;;;;;;4171189;34;20142;-67
2021/09/25 12:52:57;;;;;;;28.20;6.78;;;;;;;;;;4150757;34;20110;-64
2021/09/25 12:55:23;;;;;;;31.62;5.50;;;;;;;;;;4150934;34;20108;-67
2021/09/25 12:57:59;;;;;;;18.42;5.85;;;;;;;;;;4171764;34;20115;-67
2021/09/25 13:00:29;;;;;;;20.92;4.97;;;;;;;;;;4171937;34;20110;-65
2021/09/25 13:02:57;;;;;;;24.92;5.55;;;;;;;;;;4171853;34;20118;-65
2021/09/25 13:05:24;;;;;;;26.48;6.03;;;;;;;;;;4150659;34;20126;-65
2021/09/25 13:07:50;;;;;;;20.77;4.25;;;;;;;;;;4150548;34;20184;-67
2021/09/25 13:10:18;;;;;;;27.70;5.40;;;;;;;;;;4150762;34;20130;-65
2021/09/25 13:12:47;;;;;;;25.70;5.82;;;;;;;;;;4150552;34;20119;-64
2021/09/25 13:15:13;;;;;;;29.60;5.70;;;;;;;;;;4150561;34;20466;-65
2021/09/25 13:17:41;;;;;;;23.27;4.65;;;;;;;;;;4149057;34;20134;-67
2021/09/25 13:20:09;;;;;;;34.80;6.03;;;;;;;;;;4150611;34;20110;-65
2021/09/25 13:22:34;;;;;;;22.92;4.82;;;;;;;;;;4150751;34;20119;-65
2021/09/25 13:25:00;;;;;;;22.62;5.45;;;;;;;;;;4150654;34;20100;-67
2021/09/25 13:27:33;;;;;;;25.17;6.40;;;;;;;;;;4150751;34;20099;-68
2021/09/25 13:29:59;;;;;;;18.42;6.40;;;;;;;;;;4149177;34;20103;-65
2021/09/25 13:32:25;;;;;;;21.12;5.47;;;;;;;;;;4150581;34;20100;-67
2021/09/25 13:34:51;;;;;;;23.77;6.12;;;;;;;;;;4149379;34;20192;-64
2021/09/25 13:37:17;;;;;;;17.55;4.78;;;;;;;;;;4150224;34;20512;-64
2021/09/25 13:39:43;;;;;;;19.30;4.72;;;;;;;;;;4150407;34;20102;-64
2021/09/25 13:42:09;;;;;;;14.70;4.68;;;;;;;;;;4150653;34;20123;-64
2021/09/25 13:44:36;;;;;;;19.83;5.03;;;;;;;;;;4150745;34;20127;-64
2021/09/25 13:47:03;;;;;;;18.83;6.35;;;;;;;;;;4150285;34;20130;-64
2021/09/25 13:49:29;;;;;;;14.75;5.10;;;;;;;;;;4150380;34;20454;-64
2021/09/25 13:51:55;;;;;;;27.55;6.50;;;;;;;;;;4150151;34;20119;-64
2021/09/25 13:54:21;;;;;;;17.45;6.07;;;;;;;;;;4150405;34;20122;-66
2021/09/25 13:56:47;;;;;;;21.35;6.62;;;;;;;;;;4150631;34;20190;-67
2021/09/25 13:59:12;;;;;;;19.48;6.22;;;;;;;;;;4150276;34;20503;-64
2021/09/25 14:01:40;;;;;;;16.27;5.60;;;;;;;;;;4150231;34;20227;-64
2021/09/25 14:04:06;;;;;;;23.05;5.20;;;;;;;;;;4150202;34;20531;-67
2021/09/25 14:06:32;;;;;;;13.02;5.50;;;;;;;;;;4150330;34;20129;-64
2021/09/25 14:08:58;;;;;;;18.77;5.82;;;;;;;;;;4150149;34;20113;-63
2021/09/25 14:11:24;;;;;;;16.30;5.15;;;;;;;;;;4149937;34;20532;-64
2021/09/25 14:13:50;;;;;;;18.75;5.53;;;;;;;;;;4150094;34;20119;-64
2021/09/25 14:16:16;;;;;;;23.73;5.87;;;;;;;;;;4149920;34;20486;-64
2021/09/25 14:18:43;;;;;;;17.08;5.50;;;;;;;;;;4149623;34;20141;-63
2021/09/25 14:21:10;;;;;;;14.45;6.30;;;;;;;;;;4149733;34;20200;-67
2021/09/25 14:23:36;;;;;;;13.75;6.68;;;;;;;;;;4149608;34;20119;-67
2021/09/25 14:26:04;;;;;;;16.17;6.15;;;;;;;;;;4149806;34;20120;-66
2021/09/25 14:28:30;;;;;;;12.85;5.65;;;;;;;;;;4149577;34;20133;-66
2021/09/25 14:30:56;;;;;;;17.90;7.32;;;;;;;;;;4149451;34;20106;-64
2021/09/25 14:33:22;;;;;;;15.38;7.37;;;;;;;;;;4149283;34;20124;-64
2021/09/25 14:35:49;;;;;;;11.68;6.40;;;;;;;;;;4149733;34;20133;-64
2021/09/25 14:38:14;;;;;;;19.33;6.82;;;;;;;;;;4149575;34;20115;-63
2021/09/25 14:40:40;;;;;;;13.15;5.82;;;;;;;;;;4149652;34;20203;-64
2021/09/25 14:43:06;;;;;;;19.08;5.93;;;;;;;;;;4147847;34;20135;-64
2021/09/25 14:45:32;;;;;;;25.58;7.40;;;;;;;;;;4149489;34;20244;-64